createdAt,value
2023-02-04T00:00:31.048Z,5.60
2023-02-04T00:02:59.292Z,5.80
2023-02-04T00:05:27.278Z,4.80
2023-02-04T00:07:56.468Z,5.18
2023-02-04T00:10:24.426Z,5.20
2023-02-04T00:12:52.284Z,5.73
2023-02-04T00:15:20.308Z,5.40
2023-02-04T00:17:48.200Z,5.97
2023-02-04T00:20:16.229Z,5.00
2023-02-04T00:22:44.179Z,5.20
2023-02-04T00:25:13.642Z,5.35
2023-02-04T00:27:41.516Z,4.65
2023-02-04T00:30:10.885Z,4.35
2023-02-04T00:32:38.844Z,5.68
2023-02-04T00:35:07.424Z,5.10
2023-02-04T00:37:35.279Z,5.30
2023-02-04T00:40:03.285Z,4.85
2023-02-04T00:42:32.560Z,4.50
2023-02-04T00:45:00.403Z,4.88
2023-02-04T00:47:28.330Z,4.70
2023-02-04T00:49:56.244Z,4.25
2023-02-04T00:52:24.436Z,5.03
2023-02-04T00:54:52.316Z,5.60
2023-02-04T00:57:20.479Z,5.43
2023-02-04T00:59:49.759Z,4.70
2023-02-04T01:02:18.516Z,5.30
2023-02-04T01:04:46.629Z,4.90
2023-02-04T01:07:14.674Z,5.70
2023-02-04T01:09:42.639Z,5.18
2023-02-04T01:12:10.516Z,5.70
2023-02-04T01:14:38.375Z,6.30
2023-02-04T01:17:07.868Z,5.47
2023-02-04T01:19:35.897Z,5.70
2023-02-04T01:22:03.845Z,5.60
2023-02-04T01:24:31.900Z,5.30
2023-02-04T01:26:59.773Z,4.80
2023-02-04T01:29:27.666Z,5.07
2023-02-04T01:31:55.569Z,5.00
2023-02-04T01:34:25.939Z,5.57
2023-02-04T01:36:53.810Z,6.50
2023-02-04T01:39:21.627Z,5.25
2023-02-04T01:41:49.670Z,5.20
2023-02-04T01:44:17.883Z,4.90
2023-02-04T01:46:45.931Z,4.95
2023-02-04T01:49:14.224Z,5.65
2023-02-04T01:51:43.589Z,5.10
2023-02-04T01:54:13.600Z,5.93
2023-02-04T01:56:44.024Z,5.13
2023-02-04T01:59:14.187Z,5.38
2023-02-04T02:01:43.913Z,5.15
2023-02-04T02:04:13.540Z,5.23
2023-02-04T02:06:45.779Z,5.15
2023-02-04T02:09:13.951Z,4.57
2023-02-04T02:11:42.123Z,5.00
2023-02-04T02:14:10.402Z,5.65
2023-02-04T02:16:38.470Z,5.28
2023-02-04T02:19:09.952Z,5.00
2023-02-04T02:21:45.360Z,4.90
2023-02-04T02:24:29.015Z,4.80
2023-02-04T02:26:59.136Z,4.32
2023-02-04T02:29:27.650Z,4.30
2023-02-04T02:31:57.641Z,4.97
2023-02-04T02:34:26.008Z,5.50
2023-02-04T02:36:54.064Z,5.70
2023-02-04T02:39:22.793Z,4.90
2023-02-04T02:41:52.240Z,4.45
2023-02-04T02:44:20.561Z,4.73
2023-02-04T02:46:48.483Z,4.20
2023-02-04T02:49:18.673Z,4.50
2023-02-04T02:51:47.479Z,4.82
2023-02-04T02:54:22.784Z,4.80
2023-02-04T02:56:52.751Z,5.03
2023-02-04T02:59:20.728Z,5.25
2023-02-04T03:01:53.839Z,4.82
2023-02-04T03:04:22.983Z,4.10
2023-02-04T03:06:51.900Z,4.30
2023-02-04T03:09:20.283Z,4.63
2023-02-04T03:11:48.468Z,5.00
2023-02-04T03:14:18.312Z,4.70
2023-02-04T03:16:47.313Z,5.20
2023-02-04T03:19:15.778Z,4.50
2023-02-04T03:21:44.269Z,4.40
2023-02-04T03:24:12.485Z,4.28
2023-02-04T03:26:40.432Z,4.78
2023-02-04T03:29:10.221Z,4.60
2023-02-04T03:31:39.763Z,5.00
2023-02-04T03:34:08.238Z,5.20
2023-02-04T03:36:36.526Z,5.20
2023-02-04T03:39:04.584Z,4.30
2023-02-04T03:41:32.567Z,4.20
2023-02-04T03:44:00.456Z,4.45
2023-02-04T03:46:28.835Z,4.53
2023-02-04T03:48:58.125Z,4.40
2023-02-04T03:51:26.125Z,5.28
2023-02-04T03:53:54.059Z,4.80
2023-02-04T03:56:21.990Z,5.22
2023-02-04T03:58:49.926Z,5.05
2023-02-04T04:01:17.933Z,4.07
2023-02-04T04:03:45.862Z,4.50
2023-02-04T04:06:15.151Z,4.30
2023-02-04T04:08:43.010Z,4.00
2023-02-04T04:11:10.861Z,4.50
2023-02-04T04:13:38.916Z,5.35
2023-02-04T04:16:07.633Z,5.40
2023-02-04T04:18:35.859Z,4.30
2023-02-04T04:21:03.979Z,4.05
2023-02-04T04:23:33.249Z,4.80
2023-02-04T04:26:01.172Z,4.07
2023-02-04T04:28:29.107Z,4.23
2023-02-04T04:30:57.085Z,4.90
2023-02-04T04:33:25.079Z,5.20
2023-02-04T04:35:52.965Z,4.55
2023-02-04T04:38:20.858Z,3.80
2023-02-04T04:40:50.100Z,3.75
2023-02-04T04:43:17.984Z,3.60
2023-02-04T04:45:45.868Z,3.60
2023-02-04T04:48:13.737Z,4.00
2023-02-04T04:50:41.688Z,4.97
2023-02-04T04:53:11.403Z,4.40
2023-02-04T04:55:39.630Z,4.32
2023-02-04T04:58:09.599Z,3.63
2023-02-04T05:00:38.507Z,4.07
2023-02-04T05:03:06.414Z,3.78
2023-02-04T05:05:39.826Z,4.47
2023-02-04T05:08:10.844Z,4.22
2023-02-04T05:10:38.777Z,4.50
2023-02-04T05:13:08.328Z,4.43
2023-02-04T05:15:36.310Z,4.45
2023-02-04T05:18:04.800Z,4.40
2023-02-04T05:20:33.268Z,3.45
2023-02-04T05:23:02.680Z,4.23
2023-02-04T05:25:31.942Z,4.03
2023-02-04T05:27:59.942Z,4.63
2023-02-04T05:30:29.450Z,4.40
2023-02-04T05:32:57.599Z,4.70
2023-02-04T05:35:25.686Z,4.67
2023-02-04T05:37:53.640Z,3.60
2023-02-04T05:40:21.682Z,3.83
2023-02-04T05:42:49.635Z,4.20
2023-02-04T05:45:18.924Z,3.97
2023-02-04T05:47:48.317Z,4.43
2023-02-04T05:50:16.810Z,4.88
2023-02-04T05:52:44.787Z,4.60
2023-02-04T05:55:13.516Z,4.40
2023-02-04T05:57:41.503Z,5.05
2023-02-04T06:00:10.984Z,4.28
2023-02-04T06:02:38.898Z,4.60
2023-02-04T06:05:08.897Z,3.60
2023-02-04T06:07:36.846Z,4.55
2023-02-04T06:10:05.248Z,4.93
2023-02-04T06:12:33.271Z,4.38
2023-02-04T06:15:01.212Z,4.40
2023-02-04T06:17:29.182Z,4.60
2023-02-04T06:19:57.098Z,4.43
2023-02-04T06:22:26.810Z,4.93
2023-02-04T06:24:54.796Z,4.50
2023-02-04T06:27:24.196Z,4.77
2023-02-04T06:29:52.516Z,5.53
2023-02-04T06:32:21.231Z,4.88
2023-02-04T06:34:49.244Z,4.95
2023-02-04T06:37:17.491Z,4.47
2023-02-04T06:39:46.888Z,4.88
2023-02-04T06:42:14.889Z,5.00
2023-02-04T06:44:42.836Z,4.80
2023-02-04T06:47:10.766Z,5.28
2023-02-04T06:49:38.718Z,5.80
2023-02-04T06:52:06.978Z,4.60
2023-02-04T06:54:35.251Z,6.37
2023-02-04T06:57:07.422Z,4.65
2023-02-04T06:59:35.560Z,5.10
2023-02-04T07:02:03.944Z,4.88
2023-02-04T07:04:31.994Z,5.87
2023-02-04T07:06:59.911Z,5.80
2023-02-04T07:09:28.067Z,6.20
2023-02-04T07:11:56.054Z,5.13
2023-02-04T07:14:25.384Z,5.60
2023-02-04T07:16:53.444Z,5.30
2023-02-04T07:19:21.392Z,5.55
2023-02-04T07:21:53.904Z,5.70
2023-02-04T07:24:21.929Z,5.95
2023-02-04T07:26:50.042Z,6.50
2023-02-04T07:29:25.117Z,5.63
2023-02-04T07:31:55.221Z,5.45
2023-02-04T07:34:23.490Z,5.88
2023-02-04T07:36:51.638Z,5.03
2023-02-04T07:39:19.686Z,6.20
2023-02-04T07:41:47.742Z,5.70
2023-02-04T07:44:15.740Z,6.15
2023-02-04T07:46:43.746Z,5.55
2023-02-04T07:49:13.267Z,5.70
2023-02-04T07:51:41.244Z,4.93
2023-02-04T07:54:09.950Z,5.38
2023-02-04T07:56:37.898Z,5.03
2023-02-04T07:59:05.897Z,5.43
2023-02-04T08:01:34.059Z,5.80
2023-02-04T08:04:02.077Z,5.60
2023-02-04T08:06:31.468Z,6.37
2023-02-04T08:08:59.463Z,5.20
2023-02-04T08:11:28.026Z,5.30
2023-02-04T08:13:56.039Z,5.50
2023-02-04T08:16:24.065Z,5.45
2023-02-04T08:18:52.074Z,5.93
2023-02-04T08:21:20.040Z,6.15
2023-02-04T08:23:49.386Z,7.22
2023-02-04T08:26:17.363Z,6.40
2023-02-04T08:28:45.369Z,6.30
2023-02-04T08:31:13.473Z,6.47
2023-02-04T08:33:41.526Z,6.10
2023-02-04T08:36:10.013Z,6.40
2023-02-04T08:38:38.092Z,5.60
2023-02-04T08:41:07.646Z,6.20
2023-02-04T08:43:36.873Z,6.60
2023-02-04T08:46:05.172Z,5.80
2023-02-04T08:48:33.145Z,5.50
2023-02-04T08:51:01.377Z,6.13
2023-02-04T08:53:29.379Z,5.60
2023-02-04T08:55:57.452Z,6.05
2023-02-04T08:58:26.746Z,6.40
2023-02-04T09:00:54.749Z,6.80
2023-02-04T09:03:22.745Z,7.82
2023-02-04T09:05:50.744Z,7.18
2023-02-04T09:08:18.638Z,6.65
2023-02-04T09:10:46.618Z,6.70
2023-02-04T09:13:14.625Z,6.07
2023-02-04T09:15:43.943Z,7.37
2023-02-04T09:18:16.999Z,7.65
2023-02-04T09:20:45.181Z,7.60
2023-02-04T09:23:14.265Z,7.40
2023-02-04T09:25:43.782Z,7.22
2023-02-04T09:28:13.114Z,7.20
2023-02-04T09:30:43.996Z,6.85
2023-02-04T09:33:12.914Z,7.93
2023-02-04T09:35:41.188Z,7.53
2023-02-04T09:38:09.238Z,7.22
2023-02-04T09:40:41.981Z,7.60
2023-02-04T09:43:16.553Z,7.20
2023-02-04T09:45:46.180Z,8.35
2023-02-04T09:48:15.471Z,7.30
2023-02-04T09:50:43.603Z,6.90
2023-02-04T09:53:15.798Z,6.97
2023-02-04T09:55:46.683Z,6.68
2023-02-04T09:58:17.500Z,7.35
2023-02-04T10:00:48.461Z,7.28
2023-02-04T10:03:18.032Z,7.43
2023-02-04T10:05:47.252Z,7.30
2023-02-04T10:08:16.976Z,7.23
2023-02-04T10:10:46.258Z,6.97
2023-02-04T10:13:18.934Z,7.73
2023-02-04T10:15:50.614Z,6.95
2023-02-04T10:18:23.409Z,7.30
2023-02-04T10:20:51.457Z,7.10
2023-02-04T10:23:20.423Z,7.50
2023-02-04T10:25:48.377Z,6.65
2023-02-04T10:28:16.394Z,6.95
2023-02-04T10:30:47.205Z,7.30
2023-02-04T10:33:24.661Z,6.05
2023-02-04T10:35:54.394Z,7.17
2023-02-04T10:38:22.650Z,7.55
2023-02-04T10:41:00.945Z,7.15
2023-02-04T10:43:28.974Z,7.00
2023-02-04T10:45:58.610Z,7.30
2023-02-04T10:48:30.130Z,6.60
2023-02-04T10:50:58.931Z,6.80
2023-02-04T10:53:45.242Z,6.75
2023-02-04T10:56:18.680Z,6.35
2023-02-04T10:58:46.907Z,6.43
2023-02-04T11:01:16.868Z,7.30
2023-02-04T11:03:48.236Z,7.80
2023-02-04T11:06:21.516Z,7.72
2023-02-04T11:08:51.488Z,7.03
2023-02-04T11:11:21.785Z,7.70
2023-02-04T11:14:01.013Z,6.90
2023-02-04T11:16:30.416Z,7.53
2023-02-04T11:19:01.327Z,7.40
2023-02-04T11:21:42.610Z,7.55
2023-02-04T11:24:25.227Z,8.20
2023-02-04T11:26:55.045Z,8.40
2023-02-04T11:29:31.164Z,7.90
2023-02-04T11:32:02.329Z,7.20
2023-02-04T11:34:45.587Z,6.68
2023-02-04T11:37:35.395Z,7.47
2023-02-04T11:40:21.187Z,7.70
2023-02-04T11:42:49.558Z,7.10
2023-02-04T11:45:21.682Z,7.10
2023-02-04T11:47:51.334Z,8.35
2023-02-04T11:50:26.743Z,8.33
2023-02-04T11:52:56.436Z,8.00
2023-02-04T11:55:24.756Z,7.10
2023-02-04T11:57:54.874Z,8.00
2023-02-04T12:00:25.054Z,8.02
2023-02-04T12:02:59.206Z,7.00
2023-02-04T12:05:41.753Z,6.80
2023-02-04T12:08:15.299Z,7.63
2023-02-04T12:10:50.173Z,7.63
2023-02-04T12:13:20.203Z,7.15
2023-02-04T12:15:56.534Z,7.40
2023-02-04T12:18:24.490Z,6.53
2023-02-04T12:20:53.801Z,5.90
2023-02-04T12:23:21.942Z,6.18
2023-02-04T12:25:50.186Z,5.90
2023-02-04T12:28:18.236Z,5.50
2023-02-04T12:30:46.438Z,5.97
2023-02-04T12:33:15.140Z,6.40
2023-02-04T12:35:43.151Z,5.72
2023-02-04T12:38:12.545Z,5.60
2023-02-04T12:40:40.962Z,5.30
2023-02-04T12:43:09.309Z,4.40
2023-02-04T12:45:37.779Z,5.45
2023-02-04T12:48:05.978Z,5.03
2023-02-04T12:50:33.986Z,5.07
2023-02-04T12:53:01.971Z,6.03
2023-02-04T12:55:31.694Z,4.97
2023-02-04T12:57:59.875Z,5.20
2023-02-04T13:00:28.351Z,4.70
2023-02-04T13:02:58.993Z,4.38
2023-02-04T13:05:27.709Z,4.03
2023-02-04T13:07:55.928Z,4.43
2023-02-04T13:10:24.087Z,4.43
2023-02-04T13:12:53.440Z,5.10
2023-02-04T13:15:21.533Z,5.00
2023-02-04T13:17:49.738Z,4.53
2023-02-04T13:20:17.976Z,4.40
2023-02-04T13:22:45.953Z,4.30
2023-02-04T13:25:14.708Z,4.93
2023-02-04T13:27:42.728Z,4.53
2023-02-04T13:30:14.749Z,4.20
2023-02-04T13:32:43.563Z,4.40
2023-02-04T13:35:11.670Z,4.25
2023-02-04T13:37:39.671Z,5.18
2023-02-04T13:40:09.478Z,5.72
2023-02-04T13:42:37.596Z,5.95
2023-02-04T13:45:07.701Z,5.20
2023-02-04T13:47:37.019Z,6.15
2023-02-04T13:50:05.426Z,5.50
2023-02-04T13:52:34.427Z,5.32
2023-02-04T13:55:02.519Z,6.00
2023-02-04T13:57:30.976Z,5.60
2023-02-04T13:59:58.968Z,6.00
2023-02-04T14:02:26.964Z,6.35
2023-02-04T14:04:57.727Z,6.18
2023-02-04T14:07:25.666Z,5.10
2023-02-04T14:09:53.698Z,5.93
2023-02-04T14:12:21.661Z,6.22
2023-02-04T14:14:49.637Z,5.90
2023-02-04T14:17:17.701Z,6.25
2023-02-04T14:19:45.710Z,6.40
2023-02-04T14:22:15.074Z,6.60
2023-02-04T14:24:43.081Z,6.50
2023-02-04T14:27:11.739Z,6.13
2023-02-04T14:29:40.039Z,6.13
2023-02-04T14:32:08.407Z,5.55
2023-02-04T14:34:36.343Z,6.10
2023-02-04T14:37:04.356Z,5.57
2023-02-04T14:39:33.728Z,5.30
2023-02-04T14:42:04.484Z,6.22
2023-02-04T14:44:32.618Z,6.85
2023-02-04T14:47:00.563Z,6.90
2023-02-04T14:49:28.534Z,6.57
2023-02-04T14:51:56.922Z,6.40
2023-02-04T14:54:25.027Z,5.70
2023-02-04T14:56:54.562Z,5.88
2023-02-04T14:59:22.556Z,6.20
2023-02-04T15:01:50.518Z,6.20
2023-02-04T15:04:19.082Z,6.20
2023-02-04T15:06:47.050Z,6.07
2023-02-04T15:09:14.996Z,6.43
2023-02-04T15:11:42.958Z,6.68
2023-02-04T15:14:12.222Z,7.07
2023-02-04T15:16:42.033Z,5.97
2023-02-04T15:19:10.238Z,5.80
2023-02-04T15:21:38.214Z,5.80
2023-02-04T15:24:06.219Z,6.00
2023-02-04T15:26:34.251Z,6.40
2023-02-04T15:29:02.763Z,6.70
2023-02-04T15:31:32.692Z,7.78
2023-02-04T15:34:01.285Z,6.90
2023-02-04T15:36:29.217Z,6.55
2023-02-04T15:38:57.163Z,6.28
2023-02-04T15:41:25.234Z,7.82
2023-02-04T15:43:53.274Z,6.95
2023-02-04T15:46:21.267Z,7.38
2023-02-04T15:48:50.656Z,7.30
2023-02-04T15:51:18.582Z,7.60
2023-02-04T15:53:46.566Z,7.38
2023-02-04T15:56:14.515Z,7.60
2023-02-04T15:58:42.415Z,7.15
2023-02-04T16:01:10.479Z,6.75
2023-02-04T16:03:38.537Z,6.95
2023-02-04T16:06:08.122Z,7.07
2023-02-04T16:08:36.091Z,7.10
2023-02-04T16:11:05.969Z,6.95
2023-02-04T16:13:34.284Z,7.93
2023-02-04T16:16:02.281Z,7.65
2023-02-04T16:18:30.809Z,8.52
2023-02-04T16:20:58.798Z,8.10
2023-02-04T16:23:28.069Z,8.30
2023-02-04T16:25:56.060Z,6.70
2023-02-04T16:28:24.029Z,7.60
2023-02-04T16:30:52.114Z,7.00
2023-02-04T16:33:20.108Z,7.68
2023-02-04T16:35:59.899Z,7.10
2023-02-04T16:38:30.304Z,7.25
2023-02-04T16:40:58.316Z,7.75
2023-02-04T16:43:26.970Z,9.00
2023-02-04T16:45:55.519Z,7.65
2023-02-04T16:48:23.659Z,7.38
2023-02-04T16:50:51.620Z,8.02
2023-02-04T16:53:19.623Z,7.40
2023-02-04T16:55:49.185Z,7.70
2023-02-04T16:58:17.226Z,7.38
2023-02-04T17:00:45.234Z,8.27
2023-02-04T17:03:14.024Z,8.50
2023-02-04T17:05:42.200Z,8.60
2023-02-04T17:08:13.173Z,8.77
2023-02-04T17:10:59.255Z,8.60
2023-02-04T17:13:29.057Z,8.10
2023-02-04T17:16:00.656Z,7.72
2023-02-04T17:18:29.721Z,8.20
2023-02-04T17:20:58.553Z,8.50
2023-02-04T17:23:26.871Z,8.05
2023-02-04T17:25:55.038Z,9.20
2023-02-04T17:28:24.263Z,9.00
2023-02-04T17:30:53.876Z,9.27
2023-02-04T17:33:21.914Z,9.30
2023-02-04T17:35:49.943Z,8.10
2023-02-04T17:38:17.922Z,8.10
2023-02-04T17:40:46.624Z,8.68
2023-02-04T17:43:14.662Z,8.05
2023-02-04T17:45:42.930Z,8.38
2023-02-04T17:48:12.299Z,7.90
2023-02-04T17:50:40.525Z,9.20
2023-02-04T17:53:09.171Z,8.82
2023-02-04T17:55:39.412Z,8.82
2023-02-04T17:58:14.717Z,8.57
2023-02-04T18:00:44.371Z,7.80
2023-02-04T18:03:15.792Z,8.70
2023-02-04T18:05:46.792Z,9.05
2023-02-04T18:08:16.572Z,8.77
2023-02-04T18:10:45.946Z,10.00
2023-02-04T18:13:17.246Z,11.40
2023-02-04T18:15:47.265Z,13.07
2023-02-04T18:18:25.772Z,12.18
2023-02-04T18:21:01.001Z,12.38
2023-02-04T18:23:30.628Z,12.10
2023-02-04T18:26:06.135Z,11.82
2023-02-04T18:28:35.831Z,12.15
2023-02-04T18:31:04.719Z,12.20
2023-02-04T18:33:36.468Z,13.63
2023-02-04T18:36:04.539Z,12.40
2023-02-04T18:38:37.328Z,13.75
2023-02-04T18:41:25.566Z,13.10
2023-02-04T18:44:03.108Z,12.50
2023-02-04T18:46:33.812Z,13.15
2023-02-04T18:49:08.666Z,13.85
2023-02-04T18:51:40.554Z,14.70
2023-02-04T18:54:29.881Z,14.60
2023-02-04T18:57:17.462Z,15.13
2023-02-04T18:59:45.735Z,15.55
2023-02-04T19:02:36.310Z,16.20
2023-02-04T19:05:20.315Z,16.33
2023-02-04T19:07:48.262Z,16.50
2023-02-04T19:10:42.172Z,15.40
2023-02-04T19:13:19.999Z,16.52
2023-02-04T19:15:57.071Z,15.73
2023-02-04T19:18:27.642Z,16.25
2023-02-04T19:21:02.390Z,15.20
2023-02-04T19:23:37.228Z,16.95
2023-02-04T19:26:29.775Z,15.90
2023-02-04T19:28:58.224Z,16.80
2023-02-04T19:31:33.635Z,15.90
2023-02-04T19:34:17.078Z,15.75
2023-02-04T19:36:46.428Z,16.38
2023-02-04T19:39:29.621Z,16.85
2023-02-04T19:41:58.855Z,14.52
2023-02-04T19:44:43.052Z,16.52
2023-02-04T19:47:23.595Z,17.30
2023-02-04T19:49:52.192Z,16.65
2023-02-04T19:52:36.640Z,16.00
2023-02-04T19:55:28.124Z,16.48
2023-02-04T19:57:58.920Z,17.10
2023-02-04T20:00:48.207Z,16.42
2023-02-04T20:03:25.710Z,16.80
2023-02-04T20:05:55.736Z,18.23
2023-02-04T20:08:44.665Z,19.23
2023-02-04T20:11:41.571Z,19.20
2023-02-04T20:14:28.394Z,19.92
2023-02-04T20:16:59.229Z,17.77
2023-02-04T20:19:34.599Z,18.40
2023-02-04T20:22:37.196Z,18.52
2023-02-04T20:25:41.589Z,20.67
2023-02-04T20:28:21.104Z,19.83
2023-02-04T20:30:51.178Z,19.85
2023-02-04T20:33:28.177Z,21.27
2023-02-04T20:36:30.657Z,20.83
2023-02-04T20:39:18.246Z,21.63
2023-02-04T20:41:46.359Z,21.67
2023-02-04T20:44:21.899Z,20.17
2023-02-04T20:46:50.002Z,20.02
2023-02-04T20:49:24.328Z,19.77
2023-02-04T20:51:52.863Z,20.58
2023-02-04T20:54:21.015Z,19.50
2023-02-04T20:56:49.155Z,22.05
2023-02-04T20:59:29.824Z,20.25
2023-02-04T21:01:58.106Z,19.50
2023-02-04T21:04:31.097Z,19.10
2023-02-04T21:07:02.479Z,20.45
2023-02-04T21:09:32.258Z,20.27
2023-02-04T21:12:01.939Z,20.17
2023-02-04T21:14:31.393Z,19.60
2023-02-04T21:16:59.476Z,20.70
2023-02-04T21:19:28.812Z,20.60
2023-02-04T21:21:57.458Z,21.27
2023-02-04T21:24:26.122Z,20.08
2023-02-04T21:26:54.562Z,19.93
2023-02-04T21:29:22.560Z,19.67
2023-02-04T21:31:52.780Z,19.13
2023-02-04T21:34:20.905Z,20.25
2023-02-04T21:36:48.973Z,20.27
2023-02-04T21:39:16.976Z,19.92
2023-02-04T21:41:45.016Z,19.30
2023-02-04T21:44:13.023Z,19.80
2023-02-04T21:46:41.135Z,19.15
2023-02-04T21:49:10.577Z,20.60
2023-02-04T21:51:38.687Z,20.30
2023-02-04T21:54:06.808Z,20.40
2023-02-04T21:56:35.080Z,19.38
2023-02-04T21:59:04.683Z,20.67
2023-02-04T22:01:32.775Z,21.38
2023-02-04T22:04:00.868Z,20.20
2023-02-04T22:06:30.322Z,20.80
2023-02-04T22:08:58.363Z,19.88
2023-02-04T22:11:26.476Z,21.02
2023-02-04T22:13:54.480Z,20.75
2023-02-04T22:16:22.569Z,20.70
2023-02-04T22:18:50.721Z,21.30
2023-02-04T22:21:18.757Z,21.08
2023-02-04T22:23:48.123Z,20.27
2023-02-04T22:26:16.248Z,20.13
2023-02-04T22:28:44.292Z,20.07
2023-02-04T22:31:12.910Z,20.73
2023-02-04T22:33:41.135Z,19.77
2023-02-04T22:36:12.191Z,21.13
2023-02-04T22:38:40.419Z,20.90
2023-02-04T22:41:09.835Z,20.10
2023-02-04T22:43:37.967Z,21.23
2023-02-04T22:46:06.285Z,21.83
2023-02-04T22:48:34.459Z,21.42
2023-02-04T22:51:03.667Z,20.20
2023-02-04T22:53:31.647Z,21.02
2023-02-04T22:55:59.682Z,20.75
2023-02-04T22:58:29.125Z,20.40
2023-02-04T23:00:57.405Z,19.93
2023-02-04T23:03:25.776Z,22.08
2023-02-04T23:05:54.115Z,22.20
2023-02-04T23:08:22.396Z,19.83
2023-02-04T23:10:51.081Z,20.75
2023-02-04T23:13:20.455Z,21.25
2023-02-04T23:15:50.452Z,20.80
2023-02-04T23:18:18.468Z,20.03
2023-02-04T23:20:46.806Z,21.70
2023-02-04T23:23:17.520Z,22.50
2023-02-04T23:25:46.151Z,22.02
2023-02-04T23:28:15.135Z,21.75
2023-02-04T23:30:43.535Z,23.35
2023-02-04T23:33:12.977Z,20.90
2023-02-04T23:35:41.134Z,21.27
2023-02-04T23:38:09.284Z,20.30
2023-02-04T23:40:37.366Z,21.05
2023-02-04T23:43:05.428Z,21.77
2023-02-04T23:45:33.845Z,21.52
2023-02-04T23:48:02.029Z,22.55
2023-02-04T23:50:31.596Z,21.90
2023-02-04T23:52:59.652Z,21.30
2023-02-04T23:55:27.938Z,22.30
2023-02-04T23:57:56.019Z,21.40
